KFXEKEYW

Guest
Details From KFXE - Fort Lauderdale Executive
To KEYW - Key West Intl
Flight Number -
Tags generated
Created
Modified
Stats Distance 131 nm / 243 km
Max Altitude 9,600 ft / 2,926 m
Waypoints 3
Social Downloads 0
Likes 0
Share VATSIM

Download

Looking for another format? Having issues loading an existing format? Contact us
Advertisement - Login to hide

Notes

Basic altitude profile: - Ascent Rate: 2500ft/min - Ascent Speed: 250kts - Cruise Altitude: 35000ft - Cruise Speed: 420kts - Descent Rate: 1500ft/min - Descent Speed: 250kts

Route

KFXE OHOFO KEYW

ID Type Via Altitude Latitude Longitude Leg Dist Tot Dist Heading (true) Name
O KFXE APT - 0 ft / 0 m 26.19698˚ -80.17044˚ - 0 nm - Fort Lauderdale Executive
OHOFO FIX - 9,600 ft / 2,926 m 25.85810˚ -80.50062˚ 27 nm 27 nm 221° / 221° -
O KEYW APT - 0 ft / 0 m 24.55612˚ -81.75955˚ 103 nm 130 nm 221° / 221° Key West Intl

Altitude Profile

Advertisement - Login to hide

KFXE

Details ICAO KFXE (FXE)
Name Fort Lauderdale Executive
Region United States
Timezone America/New_York (UTC-5.0)
Stats Elevation 13 ft / 4 m (AMSL)
Location 26.196981° -80.170441°
Runways 2
Magnetic Variation 6.775° W

METAR

KFXE 160053Z 00000KT 10SM CLR 18/14 A3014 RMK AO2 SLP207 T01830139

Decode

TAF

TAF KFXE 152320Z 1600/1624 VRB05KT P6SM SCT250 FM161500 03006KT P6SM SCT250 FM161800 06009KT P6SM FEW040 SCT250

Decode

Departure Runways

ID Width Length Bearing (true) Bearing (mag) Surface Threshold Offset Overrun Length
08 100 ft / 30 m 5,992 ft / 1,826 m 83.75° 90.53° Asphalt 0 ft / 0 m 0 ft / 0 m
13 100 ft / 30 m 4,002 ft / 1,220 m 128.95° 135.73° Asphalt 0 ft / 0 m 0 ft / 0 m
26 100 ft / 30 m 5,992 ft / 1,826 m 263.76° 270.54° Asphalt 0 ft / 0 m 0 ft / 0 m
31 100 ft / 30 m 4,002 ft / 1,220 m 308.95° 315.73° Asphalt 0 ft / 0 m 0 ft / 0 m

KEYW

Details ICAO KEYW (EYW)
Name Key West Intl
Region United States
Timezone America/New_York (UTC-5.0)
Stats Elevation 2 ft / 1 m (AMSL)
Location 24.556124° -81.759546°
Runways 1
Magnetic Variation 5.545° W

METAR

KEYW 160053Z 06003KT 10SM CLR 20/16 A3014 RMK AO2 SLP206 T02000161

Decode

TAF

KEYW 152334Z 1600/1624 03007KT P6SM SCT060 TEMPO 1600/1603 BKN060 FM161200 07011KT P6SM SCT050

Decode

Destination Runways

ID Width Length Bearing (true) Bearing (mag) Surface Threshold Offset Overrun Length
09 100 ft / 30 m 4,794 ft / 1,461 m 89.38° 94.93° Asphalt 151 ft / 46 m 0 ft / 0 m
27 100 ft / 30 m 4,794 ft / 1,461 m 269.39° 274.94° Asphalt 151 ft / 46 m 0 ft / 0 m

Popular Alternatives